Wetterdaten: Woche 08.11.10 - 14.11.10 (KW45)
Datum Zeit Temperatur Luftfeuchte Luftdruck Niederschlag Wind Richtung Sonnenschein Solar Taupunkt Windchill Windben
08.11.2010 00:00 5.0 C 96 % 998.7 hPa 0.0 l/m 0.4 km/h (0 Bft) S-SO 0.00 h 0 W/m 4.4 C 5.0 C 1.6 km/h (1 Bft)
08.11.2010 01:00 5.1 C 96 % 998.1 hPa 0.0 l/m 0.4 km/h (0 Bft) SW 0.00 h 0 W/m 4.6 C 5.1 C 1.6 km/h (1 Bft)
08.11.2010 02:00 5.0 C 97 % 997.3 hPa 0.0 l/m 1.0 km/h (0 Bft) O-SO 0.00 h 0 W/m 4.5 C 4.8 C 1.7 km/h (1 Bft)
08.11.2010 03:00 4.9 C 97 % 996.1 hPa 0.0 l/m 0.9 km/h (0 Bft) O-SO 0.00 h 0 W/m 4.5 C 4.9 C 1.8 km/h (1 Bft)
08.11.2010 04:00 4.7 C 96 % 995.3 hPa 0.0 l/m 0.7 km/h (0 Bft) S-SO 0.00 h 0 W/m 4.2 C 4.7 C 2.2 km/h (1 Bft)
08.11.2010 05:00 4.6 C 94 % 994.1 hPa 0.0 l/m 0.2 km/h (0 Bft) S-SO 0.00 h 0 W/m 3.7 C 4.6 C 0.7 km/h (0 Bft)
08.11.2010 06:00 4.1 C 93 % 993.2 hPa 0.0 l/m 0.4 km/h (0 Bft) W 0.00 h 0 W/m 3.1 C 4.1 C 1.6 km/h (1 Bft)
08.11.2010 07:00 3.8 C 95 % 992.3 hPa 0.0 l/m 0.7 km/h (0 Bft) O-SO 0.00 h 7 W/m 3.0 C 3.7 C 1.6 km/h (1 Bft)
08.11.2010 08:00 4.2 C 93 % 991.5 hPa 0.0 l/m 2.6 km/h (1 Bft) W-NW 0.00 h 31 W/m 3.3 C 3.9 C 4.7 km/h (1 Bft)
08.11.2010 09:00 4.6 C 90 % 990.8 hPa 0.0 l/m 1.7 km/h (1 Bft) W-NW 0.00 h 54 W/m 3.1 C 4.6 C 3.6 km/h (1 Bft)
08.11.2010 10:00 5.2 C 85 % 989.6 hPa 0.0 l/m 2.7 km/h (1 Bft) W-SW 0.00 h 96 W/m 2.9 C 5.0 C 4.8 km/h (1 Bft)
08.11.2010 11:00 5.7 C 80 % 988.2 hPa 0.0 l/m 1.7 km/h (1 Bft) W-NW 0.02 h 188 W/m 2.6 C 5.7 C 3.6 km/h (1 Bft)
08.11.2010 12:00 6.2 C 79 % 986.4 hPa 0.0 l/m 1.8 km/h (1 Bft) SO 0.37 h 216 W/m 2.8 C 6.1 C 3.5 km/h (1 Bft)
08.11.2010 13:00 6.9 C 77 % 984.6 hPa 0.0 l/m 2.5 km/h (1 Bft) S-SO 0.32 h 205 W/m 3.1 C 6.7 C 4.6 km/h (1 Bft)
08.11.2010 14:00 7.1 C 75 % 983.2 hPa 0.0 l/m 2.5 km/h (1 Bft) S 0.13 h 125 W/m 3.1 C 7.0 C 4.9 km/h (1 Bft)
08.11.2010 15:00 6.7 C 77 % 982.0 hPa 0.0 l/m 3.0 km/h (1 Bft) O-SO 0.32 h 64 W/m 2.9 C 6.3 C 4.9 km/h (1 Bft)
08.11.2010 16:00 6.5 C 79 % 981.1 hPa 0.0 l/m 1.2 km/h (1 Bft) O-SO 0.35 h 35 W/m 3.1 C 6.4 C 2.8 km/h (1 Bft)
08.11.2010 17:00 5.0 C 84 % 980.5 hPa 0.0 l/m 0.6 km/h (0 Bft) O-NO 0.00 h 0 W/m 2.5 C 5.0 C 1.1 km/h (0 Bft)
08.11.2010 18:00 4.3 C 87 % 980.5 hPa 0.0 l/m 2.0 km/h (1 Bft) O-SO 0.00 h 0 W/m 2.3 C 4.1 C 3.0 km/h (1 Bft)
08.11.2010 19:00 4.4 C 89 % 980.8 hPa 0.0 l/m 0.3 km/h (0 Bft) O-SO 0.00 h 0 W/m 2.8 C 4.4 C 1.2 km/h (1 Bft)
08.11.2010 20:00 4.6 C 91 % 980.9 hPa 0.0 l/m 0.5 km/h (0 Bft) SW 0.00 h 0 W/m 3.3 C 4.6 C 1.1 km/h (1 Bft)
08.11.2010 21:00 4.7 C 92 % 980.8 hPa 0.4 l/m 0.1 km/h (0 Bft) SO 0.00 h 0 W/m 3.4 C 4.7 C 0.6 km/h (0 Bft)
08.11.2010 22:00 4.7 C 94 % 981.0 hPa 0.0 l/m 0.7 km/h (0 Bft) SO 0.00 h 0 W/m 3.8 C 4.6 C 1.1 km/h (1 Bft)
08.11.2010 23:00 4.4 C 92 % 980.6 hPa 0.0 l/m 5.9 km/h (2 Bft) SO 0.00 h 0 W/m 3.2 C 3.1 C 9.5 km/h (2 Bft)
09.11.2010 00:00 4.0 C 91 % 980.2 hPa 0.0 l/m 3.2 km/h (1 Bft) S-SO 0.00 h 0 W/m 2.6 C 3.3 C 6.2 km/h (2 Bft)
09.11.2010 01:00 4.2 C 92 % 980.0 hPa 0.0 l/m 2.2 km/h (1 Bft) O-SO 0.00 h 0 W/m 2.9 C 3.8 C 3.4 km/h (1 Bft)
09.11.2010 02:00 4.3 C 92 % 980.0 hPa 0.0 l/m 0.2 km/h (0 Bft) S-SO 0.00 h 0 W/m 3.1 C 4.3 C 0.7 km/h (0 Bft)
09.11.2010 03:00 4.4 C 93 % 979.7 hPa 0.2 l/m 0.4 km/h (0 Bft) S-SO 0.00 h 0 W/m 3.4 C 4.4 C 0.8 km/h (0 Bft)
09.11.2010 04:00 4.3 C 94 % 979.8 hPa 0.0 l/m 0.0 km/h (0 Bft) S-SO 0.00 h 0 W/m 3.5 C 4.3 C 0.1 km/h (0 Bft)
09.11.2010 05:00 4.3 C 95 % 980.3 hPa 0.2 l/m 0.0 km/h (0 Bft) N 0.00 h 0 W/m 3.6 C 4.3 C 0.2 km/h (0 Bft)
09.11.2010 06:00 4.5 C 96 % 980.7 hPa 0.4 l/m 0.0 km/h (0 Bft) N 0.00 h 0 W/m 3.9 C 4.5 C 0.1 km/h (0 Bft)
09.11.2010 07:00 4.6 C 96 % 980.8 hPa 1.4 l/m 0.3 km/h (0 Bft) S-SO 0.00 h 8 W/m 4.0 C 4.6 C 1.3 km/h (1 Bft)
09.11.2010 08:00 4.9 C 97 % 981.4 hPa 0.0 l/m 0.7 km/h (0 Bft) S 0.00 h 27 W/m 4.4 C 4.9 C 2.0 km/h (1 Bft)
09.11.2010 09:00 5.6 C 97 % 981.6 hPa 0.0 l/m 0.3 km/h (0 Bft) W 0.17 h 110 W/m 5.2 C 5.6 C 1.0 km/h (0 Bft)
09.11.2010 10:00 7.1 C 94 % 981.2 hPa 0.0 l/m 0.9 km/h (0 Bft) O-SO 0.60 h 209 W/m 6.1 C 7.0 C 2.4 km/h (1 Bft)
09.11.2010 11:00 7.4 C 90 % 981.3 hPa 0.0 l/m 1.5 km/h (1 Bft) O-SO 0.10 h 172 W/m 5.9 C 7.4 C 3.9 km/h (1 Bft)
09.11.2010 12:00 8.3 C 87 % 981.2 hPa 0.0 l/m 1.4 km/h (1 Bft) W-NW 0.57 h 256 W/m 6.3 C 8.2 C 3.1 km/h (1 Bft)
09.11.2010 13:00 9.5 C 83 % 981.0 hPa 0.0 l/m 3.2 km/h (1 Bft) N-NW 0.73 h 292 W/m 6.8 C 9.4 C 5.5 km/h (1 Bft)
09.11.2010 14:00 8.9 C 84 % 981.0 hPa 0.0 l/m 1.9 km/h (1 Bft) NW 0.18 h 121 W/m 6.3 C 8.8 C 3.9 km/h (1 Bft)
09.11.2010 15:00 9.2 C 83 % 981.1 hPa 0.0 l/m 0.8 km/h (0 Bft) NW 0.20 h 85 W/m 6.4 C 9.2 C 1.9 km/h (1 Bft)
09.11.2010 16:00 8.7 C 84 % 981.4 hPa 0.0 l/m 0.5 km/h (0 Bft) SO 0.08 h 23 W/m 6.2 C 8.7 C 1.7 km/h (1 Bft)
09.11.2010 17:00 7.8 C 88 % 981.6 hPa 0.0 l/m 0.2 km/h (0 Bft) SO 0.00 h 0 W/m 6.0 C 7.8 C 0.5 km/h (0 Bft)
09.11.2010 18:00 6.8 C 91 % 982.1 hPa 0.0 l/m 0.3 km/h (0 Bft) O-SO 0.00 h 0 W/m 5.5 C 6.8 C 1.0 km/h (0 Bft)
09.11.2010 19:00 6.5 C 93 % 982.7 hPa 0.0 l/m 0.7 km/h (0 Bft) O-SO 0.00 h 0 W/m 5.5 C 6.4 C 1.2 km/h (1 Bft)
09.11.2010 20:00 6.3 C 95 % 983.2 hPa 0.0 l/m 0.7 km/h (0 Bft) O-SO 0.00 h 0 W/m 5.6 C 6.3 C 1.4 km/h (1 Bft)
09.11.2010 21:00 6.3 C 96 % 983.8 hPa 0.0 l/m 0.8 km/h (0 Bft) O-SO 0.00 h 0 W/m 5.7 C 6.2 C 1.3 km/h (1 Bft)
09.11.2010 22:00 6.3 C 96 % 984.4 hPa 0.0 l/m 0.9 km/h (0 Bft) SO 0.00 h 0 W/m 5.7 C 6.2 C 1.9 km/h (1 Bft)
09.11.2010 23:00 6.2 C 96 % 984.4 hPa 0.0 l/m 1.6 km/h (1 Bft) O-SO 0.00 h 0 W/m 5.6 C 6.0 C 2.1 km/h (1 Bft)
10.11.2010 00:00 6.1 C 97 % 984.7 hPa 0.0 l/m 0.3 km/h (0 Bft) O-SO 0.00 h 0 W/m 5.7 C 6.1 C 1.1 km/h (0 Bft)
10.11.2010 01:00 6.0 C 97 % 985.2 hPa 0.0 l/m 1.0 km/h (0 Bft) SO 0.00 h 0 W/m 5.6 C 6.0 C 1.8 km/h (1 Bft)
10.11.2010 02:00 5.9 C 97 % 985.5 hPa 0.0 l/m 1.2 km/h (1 Bft) SO 0.00 h 0 W/m 5.5 C 5.9 C 2.4 km/h (1 Bft)
10.11.2010 03:00 5.9 C 97 % 985.9 hPa 0.0 l/m 0.4 km/h (0 Bft) S 0.00 h 0 W/m 5.4 C 5.9 C 0.8 km/h (0 Bft)
10.11.2010 04:00 5.7 C 97 % 986.4 hPa 0.0 l/m 0.3 km/h (0 Bft) SO 0.00 h 0 W/m 5.3 C 5.7 C 0.9 km/h (0 Bft)
10.11.2010 05:00 5.5 C 97 % 987.0 hPa 0.0 l/m 1.5 km/h (1 Bft) O-SO 0.00 h 0 W/m 5.0 C 5.4 C 2.4 km/h (1 Bft)
10.11.2010 06:00 5.4 C 97 % 987.5 hPa 0.0 l/m 1.9 km/h (1 Bft) O-SO 0.00 h 0 W/m 5.0 C 5.3 C 3.2 km/h (1 Bft)
10.11.2010 07:00 5.4 C 97 % 988.7 hPa 0.0 l/m 1.6 km/h (1 Bft) O-SO 0.00 h 11 W/m 5.0 C 5.3 C 3.0 km/h (1 Bft)
10.11.2010 08:00 5.7 C 97 % 989.6 hPa 0.0 l/m 0.8 km/h (0 Bft) O 0.00 h 31 W/m 5.2 C 5.6 C 1.5 km/h (1 Bft)
10.11.2010 09:00 7.0 C 96 % 990.4 hPa 0.0 l/m 0.2 km/h (0 Bft) O 0.28 h 130 W/m 6.4 C 7.0 C 0.7 km/h (0 Bft)
10.11.2010 10:00 8.0 C 92 % 990.9 hPa 0.0 l/m 0.4 km/h (0 Bft) O 0.00 h 118 W/m 6.8 C 8.0 C 1.1 km/h (1 Bft)
10.11.2010 11:00 8.7 C 89 % 991.5 hPa 0.0 l/m 0.6 km/h (0 Bft) W 0.10 h 156 W/m 7.0 C 8.7 C 2.2 km/h (1 Bft)
10.11.2010 12:00 10.2 C 84 % 991.7 hPa 0.0 l/m 1.0 km/h (0 Bft) W-NW 0.63 h 287 W/m 7.6 C 10.2 C 2.8 km/h (1 Bft)
10.11.2010 13:00 10.5 C 82 % 991.9 hPa 0.0 l/m 0.6 km/h (0 Bft) W 0.03 h 159 W/m 7.5 C 10.5 C 2.1 km/h (1 Bft)
10.11.2010 14:00 10.7 C 81 % 992.7 hPa 0.0 l/m 3.3 km/h (1 Bft) W-NW 0.00 h 83 W/m 7.5 C 10.7 C 6.2 km/h (2 Bft)
10.11.2010 15:00 10.5 C 77 % 994.2 hPa 0.0 l/m 8.1 km/h (2 Bft) W 0.07 h 62 W/m 6.6 C 10.5 C 12.8 km/h (3 Bft)
10.11.2010 16:00 9.6 C 83 % 995.4 hPa 0.0 l/m 2.5 km/h (1 Bft) W-NW 0.08 h 26 W/m 6.8 C 9.6 C 4.3 km/h (1 Bft)
10.11.2010 17:00 9.3 C 82 % 996.6 hPa 0.0 l/m 4.5 km/h (1 Bft) SW 0.00 h 0 W/m 6.3 C 8.9 C 7.5 km/h (2 Bft)
10.11.2010 18:00 8.3 C 89 % 998.4 hPa 0.8 l/m 10.4 km/h (2 Bft) W 0.00 h 0 W/m 6.6 C 6.7 C 15.9 km/h (3 Bft)
10.11.2010 19:00 7.5 C 94 % 1000.4 hPa 0.8 l/m 10.3 km/h (2 Bft) W 0.00 h 0 W/m 6.6 C 5.7 C 16.1 km/h (3 Bft)
10.11.2010 20:00 6.8 C 94 % 1002.1 hPa 0.2 l/m 9.1 km/h (2 Bft) W 0.00 h 0 W/m 5.9 C 5.1 C 15.1 km/h (3 Bft)
10.11.2010 21:00 6.6 C 92 % 1003.8 hPa 0.2 l/m 17.9 km/h (3 Bft) W 0.00 h 0 W/m 5.5 C 3.4 C 27.1 km/h (4 Bft)
10.11.2010 22:00 6.4 C 91 % 1005.6 hPa 0.0 l/m 12.6 km/h (3 Bft) W 0.00 h 0 W/m 5.0 C 3.9 C 19.9 km/h (4 Bft)
10.11.2010 23:00 6.4 C 89 % 1007.1 hPa 0.0 l/m 11.4 km/h (2 Bft) W 0.00 h 0 W/m 4.7 C 4.0 C 18.1 km/h (3 Bft)
11.11.2010 00:00 6.3 C 87 % 1008.5 hPa 0.0 l/m 8.5 km/h (2 Bft) W 0.00 h 0 W/m 4.3 C 4.7 C 13.0 km/h (3 Bft)
11.11.2010 01:00 6.2 C 87 % 1009.5 hPa 0.0 l/m 3.5 km/h (1 Bft) W 0.00 h 0 W/m 4.3 C 5.9 C 6.4 km/h (2 Bft)
11.11.2010 02:00 5.9 C 89 % 1010.4 hPa 0.0 l/m 2.0 km/h (1 Bft) SW 0.00 h 0 W/m 4.3 C 5.8 C 4.0 km/h (1 Bft)
11.11.2010 03:00 5.9 C 88 % 1011.1 hPa 0.0 l/m 2.5 km/h (1 Bft) W-SW 0.00 h 0 W/m 4.1 C 5.8 C 4.9 km/h (1 Bft)
11.11.2010 04:00 5.7 C 88 % 1011.7 hPa 0.0 l/m 3.3 km/h (1 Bft) W 0.00 h 0 W/m 3.8 C 5.4 C 5.8 km/h (2 Bft)
11.11.2010 05:00 5.1 C 89 % 1012.5 hPa 0.0 l/m 1.9 km/h (1 Bft) W-SW 0.00 h 0 W/m 3.4 C 5.1 C 3.5 km/h (1 Bft)
11.11.2010 06:00 4.8 C 90 % 1013.2 hPa 0.0 l/m 2.3 km/h (1 Bft) SW 0.00 h 0 W/m 3.3 C 4.7 C 4.0 km/h (1 Bft)
11.11.2010 07:00 4.3 C 90 % 1013.6 hPa 0.0 l/m 1.9 km/h (1 Bft) W-SW 0.02 h 13 W/m 2.9 C 4.3 C 3.9 km/h (1 Bft)
11.11.2010 08:00 4.7 C 90 % 1013.9 hPa 0.0 l/m 0.9 km/h (0 Bft) S-SO 0.18 h 56 W/m 3.1 C 4.6 C 2.5 km/h (1 Bft)
11.11.2010 09:00 6.4 C 86 % 1013.9 hPa 0.0 l/m 1.7 km/h (1 Bft) S-SO 0.95 h 211 W/m 4.2 C 6.4 C 3.7 km/h (1 Bft)
11.11.2010 10:00 7.9 C 78 % 1013.6 hPa 0.0 l/m 3.0 km/h (1 Bft) SW 0.58 h 235 W/m 4.3 C 7.7 C 5.9 km/h (2 Bft)
11.11.2010 11:00 8.3 C 75 % 1013.2 hPa 0.0 l/m 3.1 km/h (1 Bft) SW 0.18 h 174 W/m 4.2 C 8.3 C 6.0 km/h (2 Bft)
11.11.2010 12:00 8.9 C 72 % 1012.4 hPa 0.0 l/m 6.2 km/h (2 Bft) SW 0.35 h 224 W/m 4.0 C 8.2 C 9.7 km/h (2 Bft)
11.11.2010 13:00 9.8 C 67 % 1011.0 hPa 0.0 l/m 8.6 km/h (2 Bft) SW 0.90 h 264 W/m 3.9 C 8.8 C 14.3 km/h (3 Bft)
11.11.2010 14:00 9.7 C 66 % 1010.3 hPa 0.0 l/m 8.3 km/h (2 Bft) S-SW 0.27 h 164 W/m 3.6 C 9.0 C 13.1 km/h (3 Bft)
11.11.2010 15:00 9.6 C 62 % 1009.7 hPa 0.0 l/m 10.6 km/h (2 Bft) SW 0.38 h 100 W/m 2.7 C 8.1 C 17.5 km/h (3 Bft)
11.11.2010 16:00 9.1 C 61 % 1009.2 hPa 0.0 l/m 8.3 km/h (2 Bft) SW 0.00 h 19 W/m 1.9 C 7.9 C 13.9 km/h (3 Bft)
11.11.2010 17:00 9.1 C 63 % 1008.6 hPa 0.2 l/m 9.8 km/h (2 Bft) SW 0.00 h 0 W/m 2.3 C 7.6 C 16.0 km/h (3 Bft)
11.11.2010 18:00 9.1 C 66 % 1007.8 hPa 0.0 l/m 11.1 km/h (2 Bft) SW 0.00 h 0 W/m 3.1 C 7.5 C 18.4 km/h (3 Bft)
11.11.2010 19:00 7.3 C 81 % 1007.4 hPa 1.4 l/m 12.5 km/h (3 Bft) SW 0.00 h 0 W/m 4.3 C 5.1 C 20.9 km/h (4 Bft)
11.11.2010 20:00 6.0 C 92 % 1006.8 hPa 2.0 l/m 5.4 km/h (1 Bft) SW 0.00 h 0 W/m 4.8 C 5.1 C 9.5 km/h (2 Bft)
11.11.2010 21:00 5.8 C 93 % 1006.2 hPa 2.2 l/m 9.9 km/h (2 Bft) S-SO 0.00 h 0 W/m 4.8 C 3.7 C 17.6 km/h (3 Bft)
11.11.2010 22:00 6.8 C 93 % 1005.1 hPa 1.2 l/m 10.9 km/h (2 Bft) S-SW 0.00 h 0 W/m 5.8 C 4.7 C 18.7 km/h (3 Bft)
11.11.2010 23:00 8.0 C 94 % 1004.3 hPa 1.4 l/m 12.3 km/h (3 Bft) SW 0.00 h 0 W/m 7.2 C 5.9 C 20.1 km/h (4 Bft)
12.11.2010 00:00 8.9 C 95 % 1003.3 hPa 1.4 l/m 15.0 km/h (3 Bft) SW 0.00 h 0 W/m 8.1 C 6.7 C 23.2 km/h (4 Bft)
12.11.2010 01:00 9.6 C 93 % 1002.6 hPa 0.2 l/m 16.7 km/h (3 Bft) SW 0.00 h 0 W/m 8.5 C 7.6 C 25.7 km/h (4 Bft)
12.11.2010 02:00 10.8 C 86 % 1002.3 hPa 0.0 l/m 21.3 km/h (4 Bft) SW 0.00 h 0 W/m 8.6 C 10.8 C 32.1 km/h (5 Bft)
12.11.2010 03:00 11.3 C 85 % 1001.9 hPa 0.0 l/m 17.2 km/h (3 Bft) SW 0.00 h 0 W/m 8.8 C 11.3 C 27.7 km/h (4 Bft)
12.11.2010 04:00 11.8 C 83 % 1001.9 hPa 0.0 l/m 18.2 km/h (3 Bft) SW 0.00 h 0 W/m 9.0 C 11.8 C 27.1 km/h (4 Bft)
12.11.2010 05:00 12.2 C 82 % 1002.3 hPa 0.0 l/m 17.9 km/h (3 Bft) SW 0.00 h 0 W/m 9.3 C 12.2 C 26.9 km/h (4 Bft)
12.11.2010 06:00 11.1 C 93 % 1003.2 hPa 2.8 l/m 11.6 km/h (2 Bft) W-SW 0.00 h 0 W/m 10.0 C 11.1 C 17.6 km/h (3 Bft)
12.11.2010 07:00 11.3 C 95 % 1004.1 hPa 1.8 l/m 11.5 km/h (2 Bft) W-SW 0.00 h 5 W/m 10.5 C 11.3 C 17.6 km/h (3 Bft)
12.11.2010 08:00 11.3 C 96 % 1005.0 hPa 3.8 l/m 12.0 km/h (2 Bft) W-SW 0.00 h 9 W/m 10.7 C 11.3 C 18.5 km/h (3 Bft)
12.11.2010 09:00 11.8 C 92 % 1006.0 hPa 1.6 l/m 22.9 km/h (4 Bft) W 0.00 h 21 W/m 10.6 C 11.8 C 33.4 km/h (5 Bft)
12.11.2010 10:00 10.4 C 93 % 1007.5 hPa 3.6 l/m 18.5 km/h (3 Bft) W 0.00 h 27 W/m 9.4 C 9.7 C 27.2 km/h (4 Bft)
12.11.2010 11:00 10.2 C 95 % 1008.0 hPa 2.2 l/m 22.0 km/h (4 Bft) W 0.00 h 65 W/m 9.5 C 9.7 C 32.3 km/h (5 Bft)
12.11.2010 12:00 11.2 C 85 % 1007.6 hPa 0.0 l/m 21.7 km/h (4 Bft) W 0.00 h 106 W/m 8.7 C 11.2 C 32.3 km/h (5 Bft)
12.11.2010 13:00 12.3 C 74 % 1007.6 hPa 0.0 l/m 20.1 km/h (4 Bft) W 0.00 h 97 W/m 7.8 C 12.3 C 30.2 km/h (5 Bft)
12.11.2010 14:00 11.2 C 84 % 1007.9 hPa 0.2 l/m 21.4 km/h (4 Bft) W 0.00 h 62 W/m 8.4 C 11.2 C 30.5 km/h (5 Bft)
12.11.2010 15:00 10.3 C 93 % 1007.7 hPa 0.2 l/m 9.4 km/h (2 Bft) W 0.00 h 41 W/m 9.2 C 10.3 C 14.2 km/h (3 Bft)
12.11.2010 16:00 10.6 C 93 % 1007.3 hPa 0.0 l/m 1.2 km/h (1 Bft) W-SW 0.00 h 12 W/m 9.5 C 10.6 C 2.8 km/h (1 Bft)
12.11.2010 17:00 10.6 C 95 % 1006.8 hPa 0.6 l/m 3.0 km/h (1 Bft) N-NO 0.00 h 0 W/m 9.8 C 10.6 C 5.4 km/h (1 Bft)
12.11.2010 18:00 11.1 C 96 % 1006.4 hPa 0.6 l/m 3.5 km/h (1 Bft) W-NW 0.00 h 0 W/m 10.6 C 11.1 C 7.3 km/h (2 Bft)
12.11.2010 19:00 12.2 C 97 % 1006.9 hPa 0.2 l/m 4.8 km/h (1 Bft) W 0.00 h 0 W/m 11.8 C 12.2 C 8.7 km/h (2 Bft)
12.11.2010 20:00 13.0 C 95 % 1007.8 hPa 0.0 l/m 5.0 km/h (1 Bft) W-NW 0.00 h 0 W/m 12.2 C 13.0 C 8.4 km/h (2 Bft)
12.11.2010 21:00 14.3 C 83 % 1007.9 hPa 0.0 l/m 9.9 km/h (2 Bft) SW 0.00 h 0 W/m 11.5 C 14.3 C 15.1 km/h (3 Bft)
12.11.2010 22:00 15.4 C 74 % 1007.8 hPa 0.0 l/m 13.6 km/h (3 Bft) W 0.00 h 0 W/m 10.7 C 15.4 C 21.2 km/h (4 Bft)
12.11.2010 23:00 14.9 C 75 % 1007.6 hPa 0.0 l/m 11.5 km/h (2 Bft) W 0.00 h 0 W/m 10.4 C 14.9 C 17.6 km/h (3 Bft)
13.11.2010 00:00 14.8 C 74 % 1007.3 hPa 0.0 l/m 10.9 km/h (2 Bft) W 0.00 h 0 W/m 10.3 C 14.8 C 16.0 km/h (3 Bft)
13.11.2010 01:00 14.8 C 73 % 1007.2 hPa 0.0 l/m 11.0 km/h (2 Bft) W 0.00 h 0 W/m 10.0 C 14.8 C 16.5 km/h (3 Bft)
13.11.2010 02:00 14.9 C 73 % 1007.1 hPa 0.0 l/m 11.3 km/h (2 Bft) W 0.00 h 0 W/m 10.0 C 14.9 C 17.1 km/h (3 Bft)
13.11.2010 03:00 13.9 C 77 % 1007.3 hPa 0.0 l/m 2.8 km/h (1 Bft) SO 0.00 h 0 W/m 9.9 C 13.9 C 4.6 km/h (1 Bft)
13.11.2010 04:00 12.7 C 82 % 1007.4 hPa 0.0 l/m 0.4 km/h (0 Bft) SO 0.00 h 0 W/m 9.6 C 12.7 C 1.7 km/h (1 Bft)
13.11.2010 05:00 12.9 C 81 % 1007.3 hPa 0.0 l/m 1.4 km/h (1 Bft) S 0.00 h 0 W/m 9.6 C 12.9 C 3.4 km/h (1 Bft)
13.11.2010 06:00 13.4 C 79 % 1007.2 hPa 0.0 l/m 3.7 km/h (1 Bft) SW 0.00 h 0 W/m 9.9 C 13.4 C 6.7 km/h (2 Bft)
13.11.2010 07:00 14.2 C 76 % 1007.3 hPa 0.0 l/m 5.2 km/h (1 Bft) SW 0.33 h 22 W/m 10.0 C 14.2 C 8.8 km/h (2 Bft)
13.11.2010 08:00 15.0 C 74 % 1007.4 hPa 0.0 l/m 6.5 km/h (2 Bft) SW 0.53 h 88 W/m 10.3 C 15.0 C 10.7 km/h (2 Bft)
13.11.2010 09:00 16.8 C 68 % 1007.2 hPa 0.0 l/m 9.0 km/h (2 Bft) W-SW 0.92 h 288 W/m 10.8 C 16.8 C 13.7 km/h (3 Bft)
13.11.2010 10:00 17.5 C 62 % 1007.1 hPa 0.0 l/m 14.0 km/h (3 Bft) W 0.52 h 237 W/m 10.1 C 17.5 C 21.1 km/h (4 Bft)
13.11.2010 11:00 17.8 C 60 % 1006.8 hPa 0.0 l/m 16.5 km/h (3 Bft) W 0.55 h 266 W/m 9.8 C 17.8 C 24.3 km/h (4 Bft)
13.11.2010 12:00 17.6 C 61 % 1006.3 hPa 0.0 l/m 15.2 km/h (3 Bft) W 0.25 h 191 W/m 9.9 C 17.6 C 22.7 km/h (4 Bft)
13.11.2010 13:00 18.0 C 59 % 1005.6 hPa 0.0 l/m 13.8 km/h (3 Bft) W 0.88 h 266 W/m 9.9 C 18.0 C 20.7 km/h (4 Bft)
13.11.2010 14:00 18.4 C 57 % 1005.1 hPa 0.0 l/m 11.1 km/h (2 Bft) W 0.95 h 232 W/m 9.9 C 18.4 C 17.3 km/h (3 Bft)
13.11.2010 15:00 18.1 C 58 % 1004.6 hPa 0.0 l/m 7.9 km/h (2 Bft) W 0.82 h 121 W/m 9.9 C 18.1 C 12.2 km/h (2 Bft)
13.11.2010 16:00 16.5 C 64 % 1004.5 hPa 0.0 l/m 3.6 km/h (1 Bft) W 0.03 h 19 W/m 9.8 C 16.5 C 5.9 km/h (2 Bft)
13.11.2010 17:00 14.8 C 72 % 1004.6 hPa 0.0 l/m 4.5 km/h (1 Bft) S-SO 0.00 h 0 W/m 9.8 C 14.8 C 7.0 km/h (2 Bft)
13.11.2010 18:00 13.5 C 78 % 1004.4 hPa 0.0 l/m 4.4 km/h (1 Bft) S-SO 0.00 h 0 W/m 9.7 C 13.5 C 6.4 km/h (2 Bft)
13.11.2010 19:00 11.9 C 84 % 1004.6 hPa 0.0 l/m 0.4 km/h (0 Bft) SO 0.00 h 0 W/m 9.2 C 11.9 C 1.0 km/h (0 Bft)
13.11.2010 20:00 10.2 C 90 % 1004.8 hPa 0.0 l/m 0.1 km/h (0 Bft) SO 0.00 h 0 W/m 8.5 C 10.2 C 0.4 km/h (0 Bft)
13.11.2010 21:00 10.4 C 89 % 1004.8 hPa 0.0 l/m 1.8 km/h (1 Bft) SO 0.00 h 0 W/m 8.7 C 10.4 C 3.1 km/h (1 Bft)
13.11.2010 22:00 8.6 C 93 % 1005.0 hPa 0.0 l/m 0.1 km/h (0 Bft) O 0.00 h 0 W/m 7.5 C 8.6 C 0.8 km/h (0 Bft)
13.11.2010 23:00 7.8 C 95 % 1005.0 hPa 0.0 l/m 0.6 km/h (0 Bft) O-NO 0.00 h 0 W/m 7.1 C 7.8 C 1.7 km/h (1 Bft)
14.11.2010 00:00 7.3 C 96 % 1005.1 hPa 0.0 l/m 0.3 km/h (0 Bft) O-NO 0.00 h 0 W/m 6.7 C 7.3 C 1.2 km/h (1 Bft)
14.11.2010 01:00 6.8 C 97 % 1005.0 hPa 0.0 l/m 0.2 km/h (0 Bft) O-NO 0.00 h 0 W/m 6.3 C 6.8 C 0.8 km/h (0 Bft)
14.11.2010 02:00 6.5 C 97 % 1004.8 hPa 0.0 l/m 0.0 km/h (0 Bft) O-NO 0.00 h 0 W/m 6.1 C 6.5 C 0.6 km/h (0 Bft)
14.11.2010 03:00 5.9 C 97 % 1004.5 hPa 0.0 l/m 0.5 km/h (0 Bft) O-NO 0.00 h 0 W/m 5.5 C 5.9 C 1.2 km/h (1 Bft)
14.11.2010 04:00 5.1 C 98 % 1004.2 hPa 0.0 l/m 1.4 km/h (1 Bft) SO 0.00 h 0 W/m 4.8 C 5.1 C 2.4 km/h (1 Bft)
14.11.2010 05:00 4.6 C 98 % 1004.2 hPa 0.0 l/m 0.7 km/h (0 Bft) SO 0.00 h 0 W/m 4.3 C 4.6 C 1.2 km/h (1 Bft)
14.11.2010 06:00 4.7 C 98 % 1004.1 hPa 0.0 l/m 1.3 km/h (1 Bft) SO 0.00 h 0 W/m 4.4 C 4.6 C 2.0 km/h (1 Bft)
14.11.2010 07:00 4.4 C 98 % 1004.2 hPa 0.0 l/m 0.7 km/h (0 Bft) O-SO 0.00 h 9 W/m 4.1 C 4.4 C 1.6 km/h (1 Bft)
14.11.2010 08:00 4.9 C 99 % 1005.1 hPa 0.2 l/m 0.8 km/h (0 Bft) O-SO 0.05 h 47 W/m 4.7 C 4.9 C 2.0 km/h (1 Bft)
14.11.2010 09:00 5.9 C 99 % 1005.4 hPa 0.0 l/m 1.4 km/h (1 Bft) O-SO 0.12 h 110 W/m 5.7 C 5.7 C 2.9 km/h (1 Bft)
14.11.2010 10:00 7.8 C 99 % 1005.3 hPa 0.0 l/m 2.2 km/h (1 Bft) O-SO 0.43 h 186 W/m 7.7 C 7.7 C 4.1 km/h (1 Bft)
14.11.2010 11:00 12.0 C 88 % 1004.6 hPa 0.0 l/m 1.3 km/h (1 Bft) SO 1.00 h 369 W/m 10.0 C 12.0 C 3.2 km/h (1 Bft)
14.11.2010 12:00 15.7 C 69 % 1003.8 hPa 0.0 l/m 6.1 km/h (2 Bft) S-SO 1.00 h 378 W/m 10.1 C 15.7 C 11.0 km/h (2 Bft)
14.11.2010 13:00 17.0 C 63 % 1003.5 hPa 0.0 l/m 5.8 km/h (2 Bft) S-SO 1.00 h 327 W/m 10.0 C 17.0 C 9.7 km/h (2 Bft)
14.11.2010 14:00 17.9 C 60 % 1003.2 hPa 0.0 l/m 4.3 km/h (1 Bft) S-SO 0.98 h 238 W/m 9.9 C 17.9 C 7.8 km/h (2 Bft)
14.11.2010 15:00 17.5 C 61 % 1003.5 hPa 0.0 l/m 3.6 km/h (1 Bft) S-SO 0.32 h 89 W/m 9.8 C 17.5 C 6.2 km/h (2 Bft)
14.11.2010 16:00 15.2 C 71 % 1004.3 hPa 0.0 l/m 1.0 km/h (0 Bft) SO 0.13 h 27 W/m 10.1 C 15.2 C 2.0 km/h (1 Bft)
14.11.2010 17:00 14.0 C 75 % 1005.2 hPa 0.0 l/m 2.5 km/h (1 Bft) O-SO 0.00 h 0 W/m 9.6 C 14.0 C 3.5 km/h (1 Bft)
14.11.2010 18:00 11.9 C 84 % 1006.4 hPa 0.0 l/m 0.4 km/h (0 Bft) O-SO 0.00 h 0 W/m 9.2 C 11.9 C 0.9 km/h (0 Bft)
14.11.2010 19:00 11.0 C 86 % 1007.0 hPa 0.0 l/m 0.9 km/h (0 Bft) O-SO 0.00 h 0 W/m 8.7 C 11.0 C 2.1 km/h (1 Bft)
14.11.2010 20:00 10.1 C 90 % 1007.7 hPa 0.0 l/m 0.9 km/h (0 Bft) SO 0.00 h 0 W/m 8.6 C 10.1 C 1.8 km/h (1 Bft)
14.11.2010 21:00 10.1 C 91 % 1008.1 hPa 0.0 l/m 0.4 km/h (0 Bft) SO 0.00 h 0 W/m 8.6 C 10.1 C 0.7 km/h (0 Bft)
14.11.2010 22:00 10.0 C 92 % 1008.4 hPa 0.0 l/m 1.3 km/h (1 Bft) SO 0.00 h 0 W/m 8.8 C 10.0 C 2.2 km/h (1 Bft)
14.11.2010 23:00 9.8 C 93 % 1008.5 hPa 0.0 l/m 1.2 km/h (1 Bft) O-SO 0.00 h 0 W/m 8.7 C 9.8 C 2.0 km/h (1 Bft)
Min-Datum _ 08.11.10 13.11.10 09.11.10 - 08.11.10 - - - 11.11.10 09.11.10 08.11.10
_ Min-Zeit 07:00 14:18 03:45 - 00:00 - - - 16:29 00:16 00:03
Minimum _ 3.6 C 56 % 979.6 hPa - 0.0 km/h (0 Bft) - - - 1.5 C 0.8 C 0.0 km/h (0 Bft)
Max-Datum _ 13.11.10 08.11.10 11.11.10 12.11.10 12.11.10 - 08.11.10 08.11.10 12.11.10 13.11.10 12.11.10
_ Max-Zeit 14:16 00:45 08:45 08:31 11:46 - 11:59 13:20 19:44 14:16 11:46
Maximum _ 18.9 C 100 % 1014.0 hPa 3.8 l/m 41.1 km/h
W (6 Bft)
- 0.02 h 554 W/m 12.6 C 18.9 C 62.6 km/h
W (8 Bft)
Durchschnitt _ 8.8 C 86 % 998.5 hPa #32.4 l/m 5.0 km/h (1 Bft) W #19:58 h 126 W/m 6.5 C 8.5 C 8.1 km/h (2 Bft)
© Kaiko 2010